createdAt,value
2019-03-15T00:02:20.489Z,7.50
2019-03-15T00:04:54.073Z,7.40
2019-03-15T00:07:27.640Z,7.40
2019-03-15T00:10:01.199Z,7.40
2019-03-15T00:12:35.064Z,7.40
2019-03-15T00:15:08.622Z,7.40
2019-03-15T00:17:42.345Z,7.30
2019-03-15T00:20:15.939Z,7.40
2019-03-15T00:22:50.402Z,7.30
2019-03-15T00:25:24.094Z,7.30
2019-03-15T00:27:58.737Z,7.30
2019-03-15T00:30:32.321Z,7.20
2019-03-15T00:33:05.910Z,7.20
2019-03-15T00:35:40.433Z,7.10
2019-03-15T00:38:14.175Z,7.10
2019-03-15T00:40:50.767Z,7.10
2019-03-15T00:43:27.777Z,7.00
2019-03-15T00:46:01.490Z,7.00
2019-03-15T00:48:35.054Z,7.00
2019-03-15T00:51:08.848Z,7.00
2019-03-15T00:53:42.434Z,7.00
2019-03-15T00:56:16.087Z,7.00
2019-03-15T00:58:49.646Z,7.00
2019-03-15T01:01:25.071Z,6.90
2019-03-15T01:03:58.659Z,6.90
2019-03-15T01:06:32.236Z,6.90
2019-03-15T01:09:05.755Z,6.90
2019-03-15T01:11:40.164Z,6.90
2019-03-15T01:14:13.910Z,6.90
2019-03-15T01:16:47.479Z,6.80
2019-03-15T01:19:21.058Z,6.80
2019-03-15T01:21:56.202Z,6.80
2019-03-15T01:24:29.864Z,6.80
2019-03-15T01:27:03.504Z,6.80
2019-03-15T01:29:37.138Z,6.80
2019-03-15T01:32:10.751Z,6.90
2019-03-15T01:34:45.238Z,6.90
2019-03-15T01:37:18.919Z,6.90
2019-03-15T01:39:52.542Z,7.00
2019-03-15T01:42:26.150Z,7.00
2019-03-15T01:44:59.850Z,7.00
2019-03-15T01:47:33.385Z,7.00
2019-03-15T01:50:06.949Z,7.00
2019-03-15T01:52:40.558Z,7.00
2019-03-15T01:55:14.890Z,7.00
2019-03-15T01:57:48.577Z,7.00
2019-03-15T02:00:22.156Z,7.00
2019-03-15T02:02:55.753Z,7.10
2019-03-15T02:05:29.443Z,7.10
2019-03-15T02:08:03.231Z,7.10
2019-03-15T02:10:38.074Z,7.10
2019-03-15T02:13:11.738Z,7.00
2019-03-15T02:15:46.248Z,7.10
2019-03-15T02:18:19.770Z,7.00
2019-03-15T02:20:53.498Z,7.10
2019-03-15T02:23:27.248Z,7.10
2019-03-15T02:26:03.263Z,7.10
2019-03-15T02:28:36.940Z,7.10
2019-03-15T02:31:10.564Z,7.10
2019-03-15T02:33:45.040Z,7.20
2019-03-15T02:36:18.743Z,7.10
2019-03-15T02:38:53.482Z,7.20
2019-03-15T02:41:26.068Z,7.10
2019-03-15T02:43:59.647Z,7.20
2019-03-15T02:46:33.227Z,7.20
2019-03-15T02:49:08.320Z,7.20
2019-03-15T02:51:41.271Z,7.30
2019-03-15T02:54:15.597Z,7.30
2019-03-15T02:56:49.291Z,7.30
2019-03-15T02:59:22.877Z,7.30
2019-03-15T03:01:56.550Z,7.30
2019-03-15T03:04:30.185Z,7.30
2019-03-15T03:07:04.078Z,7.30
2019-03-15T03:09:37.816Z,7.30
2019-03-15T03:12:11.500Z,7.30
2019-03-15T03:14:45.231Z,7.30
2019-03-15T03:17:18.794Z,7.30
2019-03-15T03:19:53.502Z,7.30
2019-03-15T03:22:26.176Z,7.20
2019-03-15T03:25:00.025Z,7.20
2019-03-15T03:27:34.176Z,7.20
2019-03-15T03:30:07.230Z,7.10
2019-03-15T03:32:44.127Z,7.10
2019-03-15T03:35:14.761Z,7.10
2019-03-15T03:37:48.472Z,7.10
2019-03-15T03:40:22.059Z,7.00
2019-03-15T03:42:55.628Z,6.80
2019-03-15T03:45:30.349Z,6.80
2019-03-15T03:48:03.904Z,6.80
2019-03-15T03:50:37.474Z,6.80
2019-03-15T03:53:11.058Z,6.70
2019-03-15T03:55:44.822Z,6.70
2019-03-15T03:58:18.381Z,6.70
2019-03-15T04:00:52.765Z,6.80
2019-03-15T04:03:26.420Z,6.70
2019-03-15T04:06:00.170Z,6.70
2019-03-15T04:08:33.727Z,6.60
2019-03-15T04:11:07.454Z,6.60
2019-03-15T04:13:41.027Z,6.60
2019-03-15T04:16:14.726Z,6.50
2019-03-15T04:18:48.247Z,6.40
2019-03-15T04:21:22.475Z,6.40
2019-03-15T04:23:56.053Z,6.40
2019-03-15T04:26:29.775Z,6.40
2019-03-15T04:29:03.426Z,6.40
2019-03-15T04:31:36.998Z,6.40
2019-03-15T04:34:10.689Z,6.40
2019-03-15T04:36:44.468Z,6.40
2019-03-15T04:39:18.097Z,6.40
2019-03-15T04:41:52.482Z,6.60
2019-03-15T04:44:26.054Z,6.60
2019-03-15T04:46:59.635Z,6.60
2019-03-15T04:49:33.155Z,6.70
2019-03-15T04:52:07.512Z,6.80
2019-03-15T04:54:41.258Z,6.70
2019-03-15T04:57:14.814Z,6.80
2019-03-15T04:59:48.414Z,6.80
2019-03-15T05:02:22.183Z,6.80
2019-03-15T05:04:55.807Z,6.80
2019-03-15T05:07:30.342Z,6.90
2019-03-15T05:10:05.542Z,6.90
2019-03-15T05:12:39.217Z,6.90
2019-03-15T05:15:12.783Z,6.90
2019-03-15T05:17:46.442Z,7.10
2019-03-15T05:20:21.267Z,7.10
2019-03-15T05:22:53.694Z,7.10
2019-03-15T05:25:29.968Z,7.20
2019-03-15T05:28:00.995Z,7.20
2019-03-15T05:30:35.491Z,7.20
2019-03-15T05:33:09.963Z,7.30
2019-03-15T05:35:43.742Z,7.30
2019-03-15T05:38:17.982Z,7.40
2019-03-15T05:40:51.726Z,7.40
2019-03-15T05:43:25.358Z,7.40
2019-03-15T05:45:59.144Z,7.40
2019-03-15T05:48:32.893Z,7.40
2019-03-15T05:51:06.501Z,7.40
2019-03-15T05:53:40.118Z,7.40
2019-03-15T05:56:13.767Z,7.40
2019-03-15T05:58:48.292Z,7.40
2019-03-15T06:01:23.757Z,7.40
2019-03-15T06:03:57.548Z,7.30
2019-03-15T06:06:32.342Z,7.40
2019-03-15T06:09:07.208Z,7.40
2019-03-15T06:11:40.945Z,7.50
2019-03-15T06:14:14.760Z,7.40
2019-03-15T06:16:48.543Z,7.30
2019-03-15T06:19:22.238Z,7.50
2019-03-15T06:21:55.980Z,8.20
2019-03-15T06:24:30.957Z,8.60
2019-03-15T06:27:05.621Z,8.70
2019-03-15T06:29:40.061Z,8.60
2019-03-15T06:32:13.993Z,8.40
2019-03-15T06:34:48.549Z,7.80
2019-03-15T06:37:23.033Z,7.70
2019-03-15T06:39:57.746Z,7.60
2019-03-15T06:42:31.790Z,7.60
2019-03-15T06:45:06.507Z,7.60
2019-03-15T06:47:40.258Z,7.50
2019-03-15T06:50:14.011Z,7.50
2019-03-15T06:52:47.673Z,7.40
2019-03-15T06:55:21.331Z,7.30
2019-03-15T06:57:55.122Z,7.30
2019-03-15T07:00:29.099Z,7.20
2019-03-15T07:03:02.650Z,7.30
2019-03-15T07:05:37.016Z,7.30
2019-03-15T07:08:11.539Z,7.30
2019-03-15T07:10:45.190Z,7.20
2019-03-15T07:13:18.811Z,7.30
2019-03-15T07:15:52.645Z,7.40
2019-03-15T07:18:26.247Z,7.30
2019-03-15T07:21:00.638Z,7.30
2019-03-15T07:26:31.416Z,7.30
2019-03-15T07:29:04.982Z,7.40
2019-03-15T07:31:38.705Z,7.40
2019-03-15T07:34:13.765Z,7.40
2019-03-15T07:36:46.232Z,7.30
2019-03-15T07:39:19.801Z,7.40
2019-03-15T07:41:54.340Z,7.30
2019-03-15T07:44:28.059Z,7.30
2019-03-15T07:47:01.728Z,7.30
2019-03-15T07:49:36.153Z,7.20
2019-03-15T07:52:09.728Z,7.20
2019-03-15T07:54:43.420Z,7.20
2019-03-15T07:57:17.238Z,7.30
2019-03-15T07:59:51.611Z,7.40
2019-03-15T08:02:25.150Z,7.40
2019-03-15T08:04:59.042Z,7.40
2019-03-15T08:07:36.502Z,7.50
2019-03-15T08:10:08.724Z,7.40
2019-03-15T08:12:42.336Z,7.50
2019-03-15T08:15:16.104Z,7.50
2019-03-15T08:17:50.061Z,7.50
2019-03-15T08:20:24.847Z,7.50
2019-03-15T08:22:58.721Z,7.60
2019-03-15T08:25:32.463Z,7.70
2019-03-15T08:28:06.352Z,7.80
2019-03-15T08:30:40.862Z,7.80
2019-03-15T08:33:14.456Z,7.80
2019-03-15T08:35:48.056Z,7.70
2019-03-15T08:38:22.338Z,7.70
2019-03-15T08:40:56.694Z,7.70
2019-03-15T08:43:30.519Z,7.70
2019-03-15T08:46:04.333Z,7.70
2019-03-15T08:48:37.830Z,7.60
2019-03-15T08:51:11.491Z,7.50
2019-03-15T08:53:45.806Z,7.70
2019-03-15T08:56:20.258Z,7.80
2019-03-15T08:58:54.631Z,7.70
2019-03-15T09:01:28.187Z,7.70
2019-03-15T09:04:01.840Z,7.70
2019-03-15T09:06:36.296Z,7.90
2019-03-15T09:09:10.582Z,8.00
2019-03-15T09:11:44.136Z,8.00
2019-03-15T09:14:18.807Z,8.10
2019-03-15T09:16:52.407Z,8.30
2019-03-15T09:19:26.236Z,8.30
2019-03-15T09:22:00.679Z,8.50
2019-03-15T09:24:34.287Z,8.60
2019-03-15T09:27:10.510Z,8.70
2019-03-15T09:29:42.626Z,8.70
2019-03-15T09:32:17.162Z,8.80
2019-03-15T09:34:50.818Z,8.80
2019-03-15T09:37:25.329Z,8.70
2019-03-15T09:39:58.985Z,8.70
2019-03-15T09:42:32.765Z,8.80
2019-03-15T09:45:22.360Z,8.90
2019-03-15T09:47:56.619Z,8.90
2019-03-15T09:50:39.891Z,8.90
2019-03-15T09:53:06.024Z,9.00
2019-03-15T09:55:37.552Z,9.00
2019-03-15T09:58:11.824Z,9.10
2019-03-15T10:00:46.343Z,9.30
2019-03-15T10:03:22.464Z,9.20
2019-03-15T10:05:53.638Z,9.10
2019-03-15T10:08:27.234Z,9.20
2019-03-15T10:11:00.916Z,9.20
2019-03-15T10:13:34.507Z,9.10
2019-03-15T10:16:08.909Z,9.30
2019-03-15T10:18:42.543Z,9.30
2019-03-15T10:21:16.254Z,9.30
2019-03-15T10:23:50.034Z,9.30
2019-03-15T10:26:23.790Z,9.50
2019-03-15T10:28:57.517Z,9.60
2019-03-15T10:31:31.118Z,9.70
2019-03-15T10:34:06.644Z,9.70
2019-03-15T10:36:40.819Z,9.80
2019-03-15T10:39:16.538Z,9.90
2019-03-15T10:41:50.262Z,9.80
2019-03-15T10:44:24.063Z,9.70
2019-03-15T10:46:57.801Z,9.80
2019-03-15T10:49:31.584Z,9.90
2019-03-15T10:52:05.395Z,9.90
2019-03-15T10:54:38.938Z,10.00
2019-03-15T10:57:12.692Z,10.00
2019-03-15T10:59:46.435Z,10.10
2019-03-15T11:02:20.924Z,10.20
2019-03-15T11:04:54.651Z,10.30
2019-03-15T11:07:28.329Z,10.40
2019-03-15T11:10:02.088Z,10.50
2019-03-15T11:12:35.856Z,10.60
2019-03-15T11:15:11.977Z,10.60
2019-03-15T11:17:46.405Z,10.60
2019-03-15T11:20:20.108Z,10.60
2019-03-15T11:22:54.016Z,10.60
2019-03-15T11:25:27.846Z,10.70
2019-03-15T11:28:02.277Z,10.80
2019-03-15T11:30:36.024Z,10.80
2019-03-15T11:33:10.925Z,10.90
2019-03-15T11:35:44.662Z,10.90
2019-03-15T11:38:18.698Z,11.00
2019-03-15T11:40:52.374Z,11.00
2019-03-15T11:43:25.931Z,11.10
2019-03-15T11:45:59.467Z,11.20
2019-03-15T11:48:33.104Z,11.20
2019-03-15T11:51:07.764Z,11.40
2019-03-15T11:53:41.364Z,11.40
2019-03-15T11:56:26.478Z,11.50
2019-03-15T11:58:48.912Z,11.50
2019-03-15T12:01:22.467Z,11.50
2019-03-15T12:03:56.051Z,11.50
2019-03-15T12:06:29.647Z,11.60
2019-03-15T12:09:03.192Z,11.60
2019-03-15T12:11:37.048Z,11.70
2019-03-15T12:14:11.575Z,11.80
2019-03-15T12:16:45.288Z,11.70
2019-03-15T12:19:18.875Z,11.80
2019-03-15T12:22:05.399Z,11.70
2019-03-15T12:24:26.684Z,11.80
2019-03-15T12:27:00.391Z,11.70
2019-03-15T12:29:34.166Z,11.80
2019-03-15T12:32:07.710Z,11.80
2019-03-15T12:34:41.293Z,11.80
2019-03-15T12:37:15.635Z,11.90
2019-03-15T12:39:49.311Z,11.90
2019-03-15T12:42:22.848Z,11.90
2019-03-15T12:44:56.426Z,11.90
2019-03-15T12:47:30.032Z,11.90
2019-03-15T12:50:03.931Z,11.90
2019-03-15T12:52:46.957Z,12.00
2019-03-15T12:55:11.430Z,12.00
2019-03-15T12:57:44.944Z,12.00
2019-03-15T13:00:18.684Z,12.00
2019-03-15T13:02:52.372Z,12.00
2019-03-15T13:05:25.939Z,12.00
2019-03-15T13:07:59.776Z,12.00
2019-03-15T13:10:34.336Z,12.00
2019-03-15T13:13:08.038Z,12.00
2019-03-15T13:15:41.805Z,12.00
2019-03-15T13:18:16.106Z,12.10
2019-03-15T13:20:50.499Z,12.00
2019-03-15T13:23:24.130Z,12.00
2019-03-15T13:25:57.810Z,12.10
2019-03-15T13:28:31.450Z,12.00
2019-03-15T13:31:05.000Z,12.10
2019-03-15T13:33:38.603Z,12.10
2019-03-15T13:36:12.299Z,12.10
2019-03-15T13:38:46.148Z,12.20
2019-03-15T13:41:20.666Z,12.20
2019-03-15T13:43:54.260Z,12.20
2019-03-15T13:46:27.919Z,12.20
2019-03-15T13:49:01.695Z,12.30
2019-03-15T13:51:35.499Z,12.30
2019-03-15T13:54:09.262Z,12.30
2019-03-15T13:56:43.176Z,12.30
2019-03-15T13:59:16.840Z,12.40
2019-03-15T14:01:50.426Z,12.40
2019-03-15T14:04:23.958Z,12.40
2019-03-15T14:06:57.499Z,12.50
2019-03-15T14:09:31.309Z,12.60
2019-03-15T14:12:04.957Z,12.70
2019-03-15T14:14:38.698Z,12.70
2019-03-15T14:17:13.121Z,12.70
2019-03-15T14:19:46.911Z,12.60
2019-03-15T14:22:20.683Z,12.60
2019-03-15T14:24:54.578Z,12.60
2019-03-15T14:27:37.615Z,12.60
2019-03-15T14:30:02.059Z,12.70
2019-03-15T14:32:35.835Z,12.70
2019-03-15T14:35:09.479Z,12.70
2019-03-15T14:37:43.220Z,12.70
2019-03-15T14:40:17.138Z,12.70
2019-03-15T14:42:50.890Z,12.60
2019-03-15T14:45:24.637Z,12.70
2019-03-15T14:47:57.998Z,12.60
2019-03-15T14:50:31.740Z,12.60
2019-03-15T14:53:06.310Z,12.80
2019-03-15T14:55:40.091Z,12.70
2019-03-15T14:58:13.857Z,12.80
2019-03-15T15:00:47.633Z,12.70
2019-03-15T15:03:21.487Z,12.60
2019-03-15T15:05:55.351Z,12.70
2019-03-15T15:08:29.133Z,12.70
2019-03-15T15:11:02.812Z,12.70
2019-03-15T15:13:36.571Z,12.70
2019-03-15T15:16:10.124Z,12.80
2019-03-15T15:18:43.825Z,12.80
2019-03-15T15:21:17.444Z,12.80
2019-03-15T15:23:51.067Z,12.90
2019-03-15T15:26:24.864Z,12.90
2019-03-15T15:28:59.103Z,12.90
2019-03-15T15:31:32.680Z,12.90
2019-03-15T15:34:06.269Z,12.90
2019-03-15T15:36:40.061Z,12.90
2019-03-15T15:39:14.410Z,13.00
2019-03-15T15:41:48.033Z,13.00
2019-03-15T15:44:21.749Z,13.00
2019-03-15T15:46:55.493Z,13.00
2019-03-15T15:49:28.959Z,12.90
2019-03-15T15:52:02.545Z,12.90
2019-03-15T15:54:36.930Z,12.90
2019-03-15T15:57:11.442Z,12.90
2019-03-15T15:59:44.964Z,12.80
2019-03-15T16:02:18.588Z,12.80
2019-03-15T16:04:53.207Z,12.70
2019-03-15T16:07:26.994Z,12.70
2019-03-15T16:10:00.611Z,12.70
2019-03-15T16:12:34.466Z,12.70
2019-03-15T16:15:09.875Z,12.70
2019-03-15T16:17:45.407Z,12.70
2019-03-15T16:20:17.029Z,12.70
2019-03-15T16:22:51.603Z,12.70
2019-03-15T16:25:25.124Z,12.70
2019-03-15T16:27:59.771Z,12.70
2019-03-15T16:30:35.020Z,12.60
2019-03-15T16:33:09.725Z,12.60
2019-03-15T16:35:48.177Z,12.60
2019-03-15T16:38:22.366Z,12.60
2019-03-15T16:41:01.571Z,12.60
2019-03-15T16:43:37.216Z,12.50
2019-03-15T16:46:17.937Z,12.50
2019-03-15T16:48:53.419Z,12.50
2019-03-15T16:51:28.285Z,12.50
2019-03-15T16:54:02.909Z,12.50
2019-03-15T16:56:40.273Z,12.50
2019-03-15T16:59:19.019Z,12.50
2019-03-15T17:01:55.764Z,12.50
2019-03-15T17:04:34.094Z,12.40
2019-03-15T17:07:07.932Z,12.40
2019-03-15T17:09:41.563Z,12.40
2019-03-15T17:12:15.643Z,12.40
2019-03-15T17:14:49.380Z,12.40
2019-03-15T17:17:23.443Z,12.40
2019-03-15T17:19:57.292Z,12.30
2019-03-15T17:22:30.926Z,12.30
2019-03-15T17:25:08.500Z,12.30
2019-03-15T17:27:42.225Z,12.40
2019-03-15T17:30:16.871Z,12.40
2019-03-15T17:32:50.799Z,12.40
2019-03-15T17:35:25.230Z,12.30
2019-03-15T17:38:00.739Z,12.30
2019-03-15T17:40:34.347Z,12.30
2019-03-15T17:43:08.091Z,12.30
2019-03-15T17:45:41.796Z,12.30
2019-03-15T17:48:15.387Z,12.30
2019-03-15T17:50:48.951Z,12.30
2019-03-15T17:53:22.519Z,12.30
2019-03-15T17:55:56.218Z,12.30
2019-03-15T17:58:30.007Z,12.30
2019-03-15T18:01:04.636Z,12.30
2019-03-15T18:03:39.189Z,12.30
2019-03-15T18:06:13.477Z,12.30
2019-03-15T18:08:47.175Z,12.30
2019-03-15T18:11:21.767Z,12.30
2019-03-15T18:13:55.409Z,12.30
2019-03-15T18:16:29.135Z,12.30
2019-03-15T18:19:02.716Z,12.30
2019-03-15T18:21:36.263Z,12.30
2019-03-15T18:24:10.656Z,12.30
2019-03-15T18:26:44.230Z,12.30
2019-03-15T18:29:26.301Z,12.30
2019-03-15T18:31:51.429Z,12.30
2019-03-15T18:34:26.832Z,12.20
2019-03-15T18:37:00.383Z,12.20
2019-03-15T18:39:33.999Z,12.20
2019-03-15T18:42:07.548Z,12.20
2019-03-15T18:44:41.232Z,12.20
2019-03-15T18:47:15.860Z,12.20
2019-03-15T18:49:49.494Z,12.20
2019-03-15T18:52:23.043Z,12.20
2019-03-15T18:54:57.662Z,12.20
2019-03-15T18:57:31.520Z,12.20
2019-03-15T19:00:08.610Z,12.10
2019-03-15T19:02:43.027Z,12.10
2019-03-15T19:05:17.576Z,12.10
2019-03-15T19:07:51.400Z,12.10
2019-03-15T19:10:25.181Z,12.10
2019-03-15T19:13:02.177Z,12.10
2019-03-15T19:15:35.888Z,12.10
2019-03-15T19:18:09.614Z,12.10
2019-03-15T19:20:43.448Z,12.10
2019-03-15T19:23:17.075Z,12.10
2019-03-15T19:25:50.738Z,12.10
2019-03-15T19:28:25.301Z,12.10
2019-03-15T19:30:59.032Z,12.10
2019-03-15T19:33:32.632Z,12.20
2019-03-15T19:36:06.287Z,12.10
2019-03-15T19:38:40.790Z,12.10
2019-03-15T19:41:14.420Z,12.10
2019-03-15T19:43:48.032Z,12.10
2019-03-15T19:46:21.853Z,12.10
2019-03-15T19:48:55.762Z,12.10
2019-03-15T19:51:30.081Z,12.10
2019-03-15T19:54:03.816Z,12.10
2019-03-15T19:56:37.554Z,12.10
2019-03-15T19:59:11.132Z,12.10
2019-03-15T20:01:44.699Z,12.10
2019-03-15T20:04:18.388Z,12.10
2019-03-15T20:06:52.964Z,12.10
2019-03-15T20:09:26.643Z,12.10
2019-03-15T20:12:00.249Z,12.00
2019-03-15T20:14:34.098Z,12.00
2019-03-15T20:17:07.982Z,12.00
2019-03-15T20:19:41.559Z,11.90
2019-03-15T20:22:15.828Z,11.70
2019-03-15T20:24:49.633Z,11.80
2019-03-15T20:27:23.465Z,11.70
2019-03-15T20:29:57.224Z,11.70
2019-03-15T20:32:30.964Z,11.60
2019-03-15T20:35:04.547Z,11.60
2019-03-15T20:37:38.105Z,11.50
2019-03-15T20:40:11.682Z,11.50
2019-03-15T20:42:45.521Z,11.50
2019-03-15T20:45:19.180Z,11.50
2019-03-15T20:47:52.867Z,11.50
2019-03-15T20:50:26.532Z,11.50
2019-03-15T20:53:08.062Z,11.50
2019-03-15T20:55:34.010Z,11.50
2019-03-15T20:58:07.678Z,11.40
2019-03-15T21:00:41.233Z,11.40
2019-03-15T21:03:15.027Z,11.40
2019-03-15T21:05:50.232Z,11.40
2019-03-15T21:08:23.894Z,11.40
2019-03-15T21:10:57.584Z,11.40
2019-03-15T21:13:33.699Z,11.30
2019-03-15T21:16:04.696Z,11.30
2019-03-15T21:18:38.239Z,11.30
2019-03-15T21:21:12.703Z,11.30
2019-03-15T21:23:46.293Z,11.30
2019-03-15T21:26:20.635Z,11.30
2019-03-15T21:28:54.431Z,11.30
2019-03-15T21:31:28.018Z,11.30
2019-03-15T21:34:01.697Z,11.30
2019-03-15T21:36:35.426Z,11.30
2019-03-15T21:39:09.722Z,11.30
2019-03-15T21:41:43.398Z,11.30
2019-03-15T21:44:17.424Z,11.30
2019-03-15T21:46:50.750Z,11.30
2019-03-15T21:49:24.427Z,11.30
2019-03-15T21:51:57.952Z,11.30
2019-03-15T21:54:32.371Z,11.30
2019-03-15T21:57:06.764Z,11.30
2019-03-15T21:59:40.459Z,11.30
2019-03-15T22:02:14.197Z,11.30
2019-03-15T22:04:47.890Z,11.30
2019-03-15T22:07:21.398Z,11.30
2019-03-15T22:09:55.414Z,11.30
2019-03-15T22:12:28.627Z,11.20
2019-03-15T22:15:02.194Z,11.20
2019-03-15T22:17:35.871Z,11.20
2019-03-15T22:20:11.539Z,11.20
2019-03-15T22:22:45.091Z,11.20
2019-03-15T22:25:18.643Z,11.20
2019-03-15T22:27:52.234Z,11.20
2019-03-15T22:30:25.975Z,11.20
2019-03-15T22:32:59.562Z,11.20
2019-03-15T22:35:33.838Z,11.20
2019-03-15T22:38:07.469Z,11.20
2019-03-15T22:40:41.331Z,11.20
2019-03-15T22:43:14.814Z,11.20
2019-03-15T22:45:48.500Z,11.20
2019-03-15T22:48:22.070Z,11.20
2019-03-15T22:50:55.779Z,11.20
2019-03-15T22:53:29.531Z,11.20
2019-03-15T22:56:03.259Z,11.20
2019-03-15T22:58:37.059Z,11.20
2019-03-15T23:01:10.618Z,11.20
2019-03-15T23:03:44.434Z,11.20
2019-03-15T23:06:18.014Z,11.20
2019-03-15T23:08:51.860Z,11.20
2019-03-15T23:11:25.654Z,11.10
2019-03-15T23:13:59.475Z,11.10
2019-03-15T23:16:33.130Z,11.10
2019-03-15T23:19:06.977Z,11.10
2019-03-15T23:21:40.659Z,11.10
2019-03-15T23:24:14.229Z,11.10
2019-03-15T23:26:47.795Z,11.10
2019-03-15T23:29:22.187Z,11.00
2019-03-15T23:31:56.021Z,11.00
2019-03-15T23:34:29.640Z,11.00
2019-03-15T23:37:03.367Z,11.00
2019-03-15T23:39:36.996Z,11.00
2019-03-15T23:42:11.285Z,11.00
2019-03-15T23:44:45.619Z,10.90
2019-03-15T23:47:20.019Z,10.90
2019-03-15T23:49:53.794Z,10.90
2019-03-15T23:52:27.298Z,11.00
2019-03-15T23:55:00.832Z,11.00
2019-03-15T23:57:34.531Z,11.00
